Time;durP1;ratioP1;P1;durP2;ratioP2;P2;SDS_P1;SDS_P2;PMS_P1;PMS_P2;Temp;Humidity;BMP_temperature;BMP_pressure;BME280_temperature;BME280_humidity;BME280_pressure;Samples;Min_cycle;Max_cycle;Signal;HPM_P1;HPM_P2
2022/03/26 00:00:07;;;;;;;3.08;2.88;;;;;;;;;;5089298;28;20095;-78
2022/03/26 00:02:37;;;;;;;5.35;2.72;;;;;;;;;;5090185;28;20048;-81
2022/03/26 00:05:06;;;;;;;6.35;4.38;;;;;;;;;;5095567;28;20127;-82
2022/03/26 00:07:33;;;;;;;11.25;5.13;;;;;;;;;;5082085;28;20020;-81
2022/03/26 00:10:01;;;;;;;5.85;4.72;;;;;;;;;;5107305;28;20082;-83
2022/03/26 00:12:28;;;;;;;4.22;3.83;;;;;;;;;;5077392;28;20477;-77
2022/03/26 00:14:53;;;;;;;5.15;4.70;;;;;;;;;;5084226;28;20042;-80
2022/03/26 00:17:19;;;;;;;3.33;3.03;;;;;;;;;;5093777;28;20020;-80
2022/03/26 00:19:44;;;;;;;3.17;2.40;;;;;;;;;;5095300;28;20024;-79
2022/03/26 00:22:10;;;;;;;2.45;2.25;;;;;;;;;;5091435;28;20033;-77
2022/03/26 00:24:35;;;;;;;4.55;4.07;;;;;;;;;;5079311;28;20119;-79
2022/03/26 00:27:06;;;;;;;6.85;5.50;;;;;;;;;;5088819;28;20021;-79
2022/03/26 00:29:31;;;;;;;5.22;4.18;;;;;;;;;;5079223;28;20064;-79
2022/03/26 00:32:04;;;;;;;3.17;2.72;;;;;;;;;;5063600;28;20024;-81
2022/03/26 00:34:32;;;;;;;16.52;4.82;;;;;;;;;;5099161;28;20043;-79
2022/03/26 00:36:58;;;;;;;2.85;2.65;;;;;;;;;;5064927;28;20035;-79
2022/03/26 00:39:24;;;;;;;8.05;4.10;;;;;;;;;;5083605;28;20039;-79
2022/03/26 00:41:52;;;;;;;3.92;3.63;;;;;;;;;;5072304;28;20553;-79
2022/03/26 00:44:20;;;;;;;7.75;3.80;;;;;;;;;;5073014;28;20428;-78
2022/03/26 00:46:46;;;;;;;3.97;3.65;;;;;;;;;;5096969;28;20032;-79
2022/03/26 00:49:17;;;;;;;6.72;4.53;;;;;;;;;;5076964;28;20032;-79
2022/03/26 00:51:43;;;;;;;6.78;4.72;;;;;;;;;;5099641;28;20107;-79
2022/03/26 00:54:13;;;;;;;5.75;5.20;;;;;;;;;;5094787;28;20440;-79
2022/03/26 00:56:41;;;;;;;7.38;4.57;;;;;;;;;;5097354;28;20029;-81
2022/03/26 00:59:09;;;;;;;8.75;4.60;;;;;;;;;;5088507;28;20028;-80
2022/03/26 01:01:35;;;;;;;3.47;3.22;;;;;;;;;;5061442;28;20032;-79
2022/03/26 01:04:05;;;;;;;4.95;3.15;;;;;;;;;;5098802;28;20028;-78
2022/03/26 01:06:31;;;;;;;3.40;3.10;;;;;;;;;;5101487;28;20453;-77
2022/03/26 01:09:02;;;;;;;7.53;4.63;;;;;;;;;;5078246;28;20032;-79
2022/03/26 01:11:35;;;;;;;4.95;3.78;;;;;;;;;;5094341;28;20052;-81
2022/03/26 01:14:03;;;;;;;3.63;3.33;;;;;;;;;;5091322;28;20028;-79
2022/03/26 01:16:28;;;;;;;8.15;5.00;;;;;;;;;;5100756;28;20441;-80
2022/03/26 01:18:56;;;;;;;4.15;3.72;;;;;;;;;;5115041;28;20051;-79
2022/03/26 01:21:23;;;;;;;2.67;2.47;;;;;;;;;;5084755;28;20032;-81
2022/03/26 01:23:49;;;;;;;5.28;3.90;;;;;;;;;;5094346;28;20034;-79
2022/03/26 01:26:15;;;;;;;3.30;3.00;;;;;;;;;;5095057;28;20476;-78
2022/03/26 01:28:48;;;;;;;2.72;2.53;;;;;;;;;;5080231;28;20024;-77
2022/03/26 01:31:19;;;;;;;9.23;3.67;;;;;;;;;;5108128;28;20445;-79
2022/03/26 01:33:46;;;;;;;3.88;3.55;;;;;;;;;;5085055;28;20020;-83
2022/03/26 01:36:12;;;;;;;10.38;4.82;;;;;;;;;;5097303;28;20044;-82
2022/03/26 01:38:37;;;;;;;4.78;3.80;;;;;;;;;;5090737;28;20055;-80
2022/03/26 01:41:04;;;;;;;3.63;3.15;;;;;;;;;;5081487;28;20028;-79
2022/03/26 01:43:32;;;;;;;5.75;3.55;;;;;;;;;;5095869;28;20035;-80
2022/03/26 01:46:00;;;;;;;5.28;4.78;;;;;;;;;;5092281;28;20039;-80
2022/03/26 01:48:28;;;;;;;3.33;3.10;;;;;;;;;;5084854;28;20063;-79
2022/03/26 01:50:53;;;;;;;8.35;4.28;;;;;;;;;;5094037;28;20024;-78
2022/03/26 01:53:19;;;;;;;8.25;4.18;;;;;;;;;;5087099;28;20380;-79
2022/03/26 01:55:44;;;;;;;3.55;3.25;;;;;;;;;;5093969;28;20061;-79
2022/03/26 01:58:10;;;;;;;8.63;5.80;;;;;;;;;;5075394;28;20047;-80
2022/03/26 02:00:36;;;;;;;4.82;3.88;;;;;;;;;;5095404;28;20035;-80
2022/03/26 02:03:02;;;;;;;5.60;4.60;;;;;;;;;;5097062;28;20016;-78
2022/03/26 02:05:28;;;;;;;2.00;1.85;;;;;;;;;;5091384;28;20142;-81
2022/03/26 02:07:56;;;;;;;3.65;3.20;;;;;;;;;;5083933;28;20048;-82
2022/03/26 02:10:24;;;;;;;4.00;3.40;;;;;;;;;;5076710;28;20639;-78
2022/03/26 02:12:51;;;;;;;1.92;1.80;;;;;;;;;;5075411;28;20042;-77
2022/03/26 02:15:28;;;;;;;5.55;3.90;;;;;;;;;;5088867;28;20032;-78
2022/03/26 02:17:54;;;;;;;6.65;4.95;;;;;;;;;;5069329;28;20042;-76
2022/03/26 02:20:20;;;;;;;4.43;3.42;;;;;;;;;;5088142;28;20024;-76
2022/03/26 02:22:46;;;;;;;8.63;4.75;;;;;;;;;;5093026;28;20342;-76
2022/03/26 02:25:11;;;;;;;9.20;3.53;;;;;;;;;;5073485;28;20035;-75
2022/03/26 02:27:37;;;;;;;3.75;3.45;;;;;;;;;;5096058;28;20050;-76
2022/03/26 02:30:04;;;;;;;3.22;2.95;;;;;;;;;;5085728;28;20024;-75
2022/03/26 02:32:30;;;;;;;7.00;5.07;;;;;;;;;;5085517;28;20103;-77
2022/03/26 02:34:58;;;;;;;10.00;3.78;;;;;;;;;;5076406;28;20115;-76
2022/03/26 02:37:25;;;;;;;9.50;2.85;;;;;;;;;;5076979;28;20021;-75
2022/03/26 02:39:56;;;;;;;4.20;2.45;;;;;;;;;;5064342;28;20008;-75
2022/03/26 02:42:23;;;;;;;2.88;2.65;;;;;;;;;;5079483;28;20039;-75
2022/03/26 02:44:50;;;;;;;5.53;4.25;;;;;;;;;;5082186;28;20036;-76
2022/03/26 02:47:15;;;;;;;3.30;2.72;;;;;;;;;;5069613;28;20035;-76
2022/03/26 02:49:40;;;;;;;4.93;3.20;;;;;;;;;;5080080;28;20024;-77
2022/03/26 02:52:10;;;;;;;2.25;2.15;;;;;;;;;;5076673;28;20028;-76
2022/03/26 02:54:36;;;;;;;3.22;2.92;;;;;;;;;;5095594;28;20112;-76
2022/03/26 02:57:06;;;;;;;7.35;5.35;;;;;;;;;;5089142;28;20052;-76
2022/03/26 02:59:35;;;;;;;7.78;5.03;;;;;;;;;;5092647;28;20059;-75
2022/03/26 03:02:00;;;;;;;3.35;2.60;;;;;;;;;;5067056;28;20457;-75
2022/03/26 03:04:26;;;;;;;5.93;3.13;;;;;;;;;;5091427;28;20043;-76
2022/03/26 03:06:52;;;;;;;3.78;3.28;;;;;;;;;;5082063;28;20024;-75
2022/03/26 03:09:20;;;;;;;4.38;3.60;;;;;;;;;;5067817;28;20028;-75
2022/03/26 03:11:45;;;;;;;3.05;2.38;;;;;;;;;;5084779;28;20032;-75
2022/03/26 03:14:16;;;;;;;3.42;3.13;;;;;;;;;;5081323;28;20035;-75
2022/03/26 03:16:41;;;;;;;3.28;2.97;;;;;;;;;;5091024;28;20030;-75
2022/03/26 03:19:09;;;;;;;4.30;3.92;;;;;;;;;;5063036;28;20024;-78
2022/03/26 03:21:35;;;;;;;3.83;3.25;;;;;;;;;;5086930;28;20603;-76
2022/03/26 03:24:00;;;;;;;2.63;2.28;;;;;;;;;;5080898;28;20108;-76
2022/03/26 03:26:30;;;;;;;4.32;3.25;;;;;;;;;;5088589;28;20108;-76
2022/03/26 03:28:59;;;;;;;2.60;2.38;;;;;;;;;;5089093;28;20019;-76
2022/03/26 03:31:28;;;;;;;4.05;1.90;;;;;;;;;;5084873;28;20111;-76
2022/03/26 03:33:56;;;;;;;4.25;3.88;;;;;;;;;;5082300;28;20032;-76
2022/03/26 03:36:21;;;;;;;3.25;2.55;;;;;;;;;;5090754;28;20459;-76
2022/03/26 03:38:51;;;;;;;3.45;3.15;;;;;;;;;;5087313;28;20032;-76
2022/03/26 03:41:17;;;;;;;4.38;2.13;;;;;;;;;;5096230;28;20036;-75
2022/03/26 03:43:43;;;;;;;10.48;3.65;;;;;;;;;;5048781;28;20042;-75
2022/03/26 03:46:10;;;;;;;3.70;3.40;;;;;;;;;;5060745;28;20013;-75
2022/03/26 03:48:38;;;;;;;9.13;4.35;;;;;;;;;;5087532;28;20029;-76
2022/03/26 03:51:04;;;;;;;3.60;3.30;;;;;;;;;;5091191;28;20452;-76
2022/03/26 03:53:29;;;;;;;5.60;3.10;;;;;;;;;;5074761;28;20043;-76
2022/03/26 03:55:59;;;;;;;4.60;4.20;;;;;;;;;;5087687;28;20060;-75
2022/03/26 03:58:27;;;;;;;3.28;2.97;;;;;;;;;;5086412;28;20119;-76
2022/03/26 04:00:54;;;;;;;4.53;3.35;;;;;;;;;;5095962;28;20024;-75
2022/03/26 04:03:22;;;;;;;5.70;1.27;;;;;;;;;;5080264;28;20020;-77
2022/03/26 04:05:52;;;;;;;3.38;3.08;;;;;;;;;;5081145;28;20025;-75
2022/03/26 04:08:17;;;;;;;8.15;3.53;;;;;;;;;;5092392;28;20360;-76
2022/03/26 04:10:43;;;;;;;5.88;3.08;;;;;;;;;;5051993;28;20016;-75
2022/03/26 04:13:13;;;;;;;5.05;2.75;;;;;;;;;;5087358;28;20453;-75
2022/03/26 04:15:39;;;;;;;5.60;4.93;;;;;;;;;;5086617;28;20016;-74
2022/03/26 04:18:05;;;;;;;8.30;3.47;;;;;;;;;;5061828;28;20024;-75
2022/03/26 04:20:36;;;;;;;4.05;3.70;;;;;;;;;;5077050;28;20063;-75
2022/03/26 04:23:04;;;;;;;5.78;3.35;;;;;;;;;;5066812;28;20032;-75
2022/03/26 04:25:32;;;;;;;3.30;3.00;;;;;;;;;;5086315;28;20360;-75
2022/03/26 04:27:57;;;;;;;3.88;3.53;;;;;;;;;;5079005;28;20057;-75
2022/03/26 04:30:23;;;;;;;3.60;3.35;;;;;;;;;;5058581;28;20028;-74
2022/03/26 04:32:50;;;;;;;3.25;2.95;;;;;;;;;;5096769;28;20032;-75
2022/03/26 04:35:16;;;;;;;4.40;4.05;;;;;;;;;;5091989;28;20020;-75
2022/03/26 04:37:41;;;;;;;5.53;2.83;;;;;;;;;;5076709;28;20452;-75
2022/03/26 04:40:11;;;;;;;5.50;4.30;;;;;;;;;;5079113;28;20024;-75
2022/03/26 04:42:38;;;;;;;3.10;2.70;;;;;;;;;;5085785;28;20032;-75
2022/03/26 04:45:07;;;;;;;4.85;3.13;;;;;;;;;;5074007;28;20043;-75
2022/03/26 04:47:33;;;;;;;5.47;4.10;;;;;;;;;;5095696;28;20107;-75
2022/03/26 04:49:58;;;;;;;3.50;3.10;;;;;;;;;;5095117;28;20126;-75
2022/03/26 04:52:26;;;;;;;4.85;4.45;;;;;;;;;;5094284;28;20052;-75
2022/03/26 04:54:51;;;;;;;2.40;2.20;;;;;;;;;;5090365;28;20020;-75
2022/03/26 04:57:18;;;;;;;3.80;3.20;;;;;;;;;;5096525;28;20092;-74
2022/03/26 04:59:45;;;;;;;3.70;3.40;;;;;;;;;;5093690;28;20020;-75
2022/03/26 05:02:13;;;;;;;8.05;4.35;;;;;;;;;;5073606;28;20039;-74
2022/03/26 05:04:39;;;;;;;5.72;3.58;;;;;;;;;;5093073;28;20061;-75
2022/03/26 05:07:45;;;;;;;4.82;2.65;;;;;;;;;;5075563;28;20027;-75
2022/03/26 05:09:50;;;;;;;2.17;1.95;;;;;;;;;;5087420;28;20043;-75
2022/03/26 05:12:21;;;;;;;2.30;2.10;;;;;;;;;;5090066;28;20027;-75
2022/03/26 05:14:46;;;;;;;3.20;2.97;;;;;;;;;;5083747;28;20471;-75
2022/03/26 05:17:14;;;;;;;3.28;2.95;;;;;;;;;;5059384;28;20021;-75
2022/03/26 05:19:39;;;;;;;10.10;4.60;;;;;;;;;;5096737;28;20034;-75
2022/03/26 05:22:05;;;;;;;2.33;2.20;;;;;;;;;;5089294;28;20107;-74
2022/03/26 05:24:33;;;;;;;2.60;2.40;;;;;;;;;;5066663;28;20030;-75
2022/03/26 05:27:01;;;;;;;4.25;3.95;;;;;;;;;;5085864;28;20063;-74
2022/03/26 05:29:29;;;;;;;3.67;3.38;;;;;;;;;;5096764;28;20039;-74
2022/03/26 05:31:54;;;;;;;4.50;3.60;;;;;;;;;;5098865;28;20038;-75
2022/03/26 05:34:20;;;;;;;3.70;3.40;;;;;;;;;;5078866;28;20103;-75
2022/03/26 05:36:50;;;;;;;5.35;2.92;;;;;;;;;;5096144;28;20098;-75
2022/03/26 05:39:15;;;;;;;3.50;3.22;;;;;;;;;;5083063;28;20024;-75
2022/03/26 05:41:43;;;;;;;2.58;2.38;;;;;;;;;;5103751;27;20029;-74
2022/03/26 05:44:08;;;;;;;3.42;3.20;;;;;;;;;;5083607;28;20599;-75
2022/03/26 05:46:36;;;;;;;4.07;3.63;;;;;;;;;;5087362;28;20040;-75
2022/03/26 05:49:04;;;;;;;3.22;3.00;;;;;;;;;;5092791;28;20016;-75
2022/03/26 05:51:29;;;;;;;5.07;3.13;;;;;;;;;;5093316;28;20476;-75
2022/03/26 05:53:54;;;;;;;1.83;1.73;;;;;;;;;;5082493;28;20024;-81
2022/03/26 05:56:20;;;;;;;3.03;2.17;;;;;;;;;;5088149;28;20027;-81
2022/03/26 05:58:45;;;;;;;2.80;2.58;;;;;;;;;;5065888;28;20026;-81
2022/03/26 06:01:11;;;;;;;6.85;2.97;;;;;;;;;;5050085;28;20028;-80
2022/03/26 06:03:36;;;;;;;1.63;1.52;;;;;;;;;;5047330;28;20046;-81
2022/03/26 06:06:02;;;;;;;4.25;3.33;;;;;;;;;;5057276;28;20020;-82
2022/03/26 06:08:27;;;;;;;6.18;3.17;;;;;;;;;;5070348;28;20024;-80
2022/03/26 06:10:52;;;;;;;3.20;2.65;;;;;;;;;;5062578;28;20439;-82
2022/03/26 06:13:18;;;;;;;6.07;3.78;;;;;;;;;;5048039;28;20037;-81
2022/03/26 06:15:43;;;;;;;7.15;4.30;;;;;;;;;;5059345;28;20024;-81
2022/03/26 06:18:10;;;;;;;4.43;4.00;;;;;;;;;;5062249;28;20038;-82
2022/03/26 06:20:37;;;;;;;3.03;2.75;;;;;;;;;;5062557;28;20036;-82
2022/03/26 06:23:03;;;;;;;7.72;3.42;;;;;;;;;;5062950;28;20083;-82
2022/03/26 06:25:28;;;;;;;3.85;3.50;;;;;;;;;;5068706;28;20399;-82
2022/03/26 06:27:54;;;;;;;4.78;3.55;;;;;;;;;;5067386;28;20102;-82
2022/03/26 06:30:19;;;;;;;2.67;2.38;;;;;;;;;;5047217;28;20020;-82
2022/03/26 06:32:45;;;;;;;3.45;3.10;;;;;;;;;;5067584;28;20025;-82
2022/03/26 06:35:11;;;;;;;4.80;4.35;;;;;;;;;;5075277;28;20028;-81
2022/03/26 06:37:36;;;;;;;4.40;4.05;;;;;;;;;;5057789;28;20365;-81
2022/03/26 06:40:06;;;;;;;2.80;2.60;;;;;;;;;;5053197;28;20028;-82
2022/03/26 06:42:32;;;;;;;5.20;4.18;;;;;;;;;;5062877;28;20442;-81
2022/03/26 06:45:00;;;;;;;6.15;5.18;;;;;;;;;;5099471;28;20062;-81
2022/03/26 06:47:26;;;;;;;2.67;2.47;;;;;;;;;;5084550;28;20085;-82
2022/03/26 06:50:00;;;;;;;6.53;5.60;;;;;;;;;;5067404;28;20470;-80
2022/03/26 06:52:25;;;;;;;3.67;3.38;;;;;;;;;;5091601;28;20038;-80
2022/03/26 06:54:54;;;;;;;3.92;3.55;;;;;;;;;;5047877;28;20024;-81
2022/03/26 06:57:19;;;;;;;6.60;4.07;;;;;;;;;;5073826;28;20051;-83
2022/03/26 06:59:45;;;;;;;4.22;3.38;;;;;;;;;;5083892;28;20012;-82
2022/03/26 07:02:11;;;;;;;7.38;6.70;;;;;;;;;;5086090;28;20039;-82
2022/03/26 07:04:39;;;;;;;1.70;1.60;;;;;;;;;;5087999;28;20028;-82
2022/03/26 07:07:06;;;;;;;5.40;4.30;;;;;;;;;;5069442;28;20024;-82
2022/03/26 07:09:31;;;;;;;6.28;4.88;;;;;;;;;;5070940;28;20028;-82
2022/03/26 07:11:57;;;;;;;3.88;3.40;;;;;;;;;;5059992;28;20019;-82
2022/03/26 07:14:22;;;;;;;4.53;3.70;;;;;;;;;;5054116;28;20031;-81
2022/03/26 07:16:50;;;;;;;5.63;4.60;;;;;;;;;;5064912;28;20028;-82
2022/03/26 07:19:15;;;;;;;5.45;4.93;;;;;;;;;;5047919;28;20085;-82
2022/03/26 07:21:41;;;;;;;12.15;6.40;;;;;;;;;;5071717;28;20036;-82
2022/03/26 07:24:06;;;;;;;4.15;3.53;;;;;;;;;;5080707;28;20051;-81
2022/03/26 07:26:34;;;;;;;4.68;3.45;;;;;;;;;;5064403;28;20630;-81
2022/03/26 07:28:59;;;;;;;4.43;3.95;;;;;;;;;;5079185;28;20020;-81
2022/03/26 07:31:25;;;;;;;6.55;3.92;;;;;;;;;;5069005;28;20027;-81
2022/03/26 07:33:51;;;;;;;5.43;3.22;;;;;;;;;;5082733;28;20032;-81
2022/03/26 07:36:16;;;;;;;4.45;4.07;;;;;;;;;;5060295;28;20073;-81
2022/03/26 07:38:47;;;;;;;3.80;3.42;;;;;;;;;;5055033;28;20145;-81
2022/03/26 07:41:13;;;;;;;5.18;3.55;;;;;;;;;;5056589;28;20047;-81
2022/03/26 07:43:38;;;;;;;8.40;5.47;;;;;;;;;;5054074;28;20042;-82
2022/03/26 07:46:06;;;;;;;4.47;2.58;;;;;;;;;;5046082;28;20508;-81
2022/03/26 07:48:37;;;;;;;3.03;2.83;;;;;;;;;;5050511;28;20020;-81
2022/03/26 07:51:03;;;;;;;3.05;2.75;;;;;;;;;;5067213;28;20096;-81
2022/03/26 07:53:33;;;;;;;4.53;3.25;;;;;;;;;;5062095;28;20035;-81
2022/03/26 07:56:00;;;;;;;6.07;3.95;;;;;;;;;;5064381;28;20031;-81
2022/03/26 07:58:26;;;;;;;5.22;4.57;;;;;;;;;;5082556;28;20073;-81
2022/03/26 08:00:51;;;;;;;5.82;4.32;;;;;;;;;;5082400;28;20037;-82
2022/03/26 08:03:17;;;;;;;10.43;5.63;;;;;;;;;;5056692;28;20036;-81
2022/03/26 08:05:42;;;;;;;5.22;4.05;;;;;;;;;;5068583;28;20020;-80
2022/03/26 08:08:10;;;;;;;8.23;4.93;;;;;;;;;;5056091;28;20082;-81
2022/03/26 08:10:35;;;;;;;6.60;5.43;;;;;;;;;;5056563;28;20093;-81
2022/03/26 08:13:03;;;;;;;6.32;5.13;;;;;;;;;;5053454;28;20040;-81
2022/03/26 08:15:29;;;;;;;5.55;4.80;;;;;;;;;;5030215;28;20040;-81
2022/03/26 08:17:54;;;;;;;6.60;4.90;;;;;;;;;;5036208;28;20044;-79
2022/03/26 08:20:20;;;;;;;6.53;3.78;;;;;;;;;;5057405;28;20112;-81
2022/03/26 08:22:45;;;;;;;8.55;4.55;;;;;;;;;;5038468;28;20040;-81
2022/03/26 08:26:19;;;;;;;11.90;6.50;;;;;;;;;;5037257;28;20169;-82
2022/03/26 08:28:12;;;;;;;7.25;5.28;;;;;;;;;;5037161;28;20029;-81
2022/03/26 08:30:38;;;;;;;7.57;5.32;;;;;;;;;;5060346;28;20036;-81
2022/03/26 08:33:07;;;;;;;6.63;3.65;;;;;;;;;;5024545;28;20036;-81
2022/03/26 08:35:37;;;;;;;11.52;7.22;;;;;;;;;;5057462;28;20421;-81
2022/03/26 08:38:06;;;;;;;14.73;6.70;;;;;;;;;;5057040;28;20081;-81
2022/03/26 08:40:34;;;;;;;7.97;6.10;;;;;;;;;;5058244;28;20085;-81
2022/03/26 08:43:00;;;;;;;10.30;6.10;;;;;;;;;;5064114;28;20028;-81
2022/03/26 08:45:50;;;;;;;6.07;4.32;;;;;;;;;;5048550;28;20055;-78
2022/03/26 08:48:16;;;;;;;9.13;5.20;;;;;;;;;;5068154;28;20020;-79
2022/03/26 08:50:47;;;;;;;10.10;5.63;;;;;;;;;;5070217;28;20345;-82
2022/03/26 08:53:15;;;;;;;6.28;4.35;;;;;;;;;;5080420;28;20437;-80
2022/03/26 08:55:43;;;;;;;15.93;6.63;;;;;;;;;;5085828;28;20023;-81
2022/03/26 08:58:09;;;;;;;8.90;4.93;;;;;;;;;;5077574;28;20099;-82
2022/03/26 09:00:35;;;;;;;8.73;4.93;;;;;;;;;;5088733;28;20027;-82
2022/03/26 09:03:05;;;;;;;8.75;6.18;;;;;;;;;;5094189;28;20118;-82
2022/03/26 09:05:31;;;;;;;6.63;4.78;;;;;;;;;;5122971;28;20328;-82
2022/03/26 09:07:58;;;;;;;7.05;4.55;;;;;;;;;;5068768;28;20344;-82
2022/03/26 09:10:29;;;;;;;8.43;5.20;;;;;;;;;;5069368;28;20017;-80
2022/03/26 09:12:55;;;;;;;6.00;4.43;;;;;;;;;;5050793;28;20016;-81
2022/03/26 09:15:21;;;;;;;6.10;4.40;;;;;;;;;;5062554;28;20016;-81
2022/03/26 09:17:46;;;;;;;8.65;4.88;;;;;;;;;;5059066;28;20510;-82
2022/03/26 09:20:14;;;;;;;9.55;4.93;;;;;;;;;;5043606;28;20103;-81
2022/03/26 09:22:44;;;;;;;11.30;6.13;;;;;;;;;;5081337;28;20028;-80
2022/03/26 09:25:10;;;;;;;6.97;4.55;;;;;;;;;;5068918;28;20028;-80
2022/03/26 09:27:37;;;;;;;4.30;3.72;;;;;;;;;;5092602;28;20514;-81
2022/03/26 09:30:06;;;;;;;8.20;3.55;;;;;;;;;;5062639;28;20035;-81
2022/03/26 09:32:34;;;;;;;5.80;3.80;;;;;;;;;;5050441;28;20029;-81
2022/03/26 09:35:00;;;;;;;8.52;4.97;;;;;;;;;;5082938;28;20437;-81
2022/03/26 09:37:25;;;;;;;6.22;3.92;;;;;;;;;;5043475;28;20112;-81
2022/03/26 09:39:50;;;;;;;4.03;3.67;;;;;;;;;;5053214;28;20017;-80
2022/03/26 09:42:16;;;;;;;6.93;4.60;;;;;;;;;;5058093;28;20032;-80
2022/03/26 09:44:47;;;;;;;3.70;2.80;;;;;;;;;;5058510;28;20106;-80
2022/03/26 09:47:13;;;;;;;3.80;2.55;;;;;;;;;;5063521;28;20028;-81
2022/03/26 09:49:38;;;;;;;8.50;4.55;;;;;;;;;;5059763;28;20035;-80
2022/03/26 09:52:06;;;;;;;12.40;4.50;;;;;;;;;;5051282;28;20483;-80
2022/03/26 09:54:34;;;;;;;5.85;3.90;;;;;;;;;;5066654;28;20454;-80
2022/03/26 09:57:03;;;;;;;6.55;3.80;;;;;;;;;;5090087;28;20028;-80
2022/03/26 09:59:33;;;;;;;13.63;4.32;;;;;;;;;;5070689;28;20020;-81
2022/03/26 10:02:02;;;;;;;5.03;3.10;;;;;;;;;;5086576;28;20548;-80
2022/03/26 10:04:38;;;;;;;5.40;4.15;;;;;;;;;;5069431;28;20056;-81
2022/03/26 10:07:04;;;;;;;4.90;3.72;;;;;;;;;;5060312;28;20479;-81
2022/03/26 10:09:45;;;;;;;3.58;3.08;;;;;;;;;;5070896;28;20028;-80
2022/03/26 10:12:27;;;;;;;6.70;3.55;;;;;;;;;;5060720;28;20401;-81
2022/03/26 10:15:06;;;;;;;4.05;2.47;;;;;;;;;;5082311;28;20028;-80
2022/03/26 10:17:33;;;;;;;4.97;2.42;;;;;;;;;;5092016;28;20036;-80
2022/03/26 10:20:04;;;;;;;3.95;2.85;;;;;;;;;;5089487;28;20357;-79
2022/03/26 10:22:54;;;;;;;6.30;3.50;;;;;;;;;;5069927;28;20107;-80
2022/03/26 10:25:24;;;;;;;3.13;2.15;;;;;;;;;;5101974;28;20035;-81
2022/03/26 10:27:56;;;;;;;2.63;2.33;;;;;;;;;;5088509;28;20406;-81
2022/03/26 10:33:29;;;;;;;3.78;2.40;;;;;;;;;;5089644;28;20135;-79
2022/03/26 10:35:56;;;;;;;4.63;1.80;;;;;;;;;;5083360;28;20100;-82
2022/03/26 10:38:38;;;;;;;4.80;2.03;;;;;;;;;;5088542;28;20051;-82
2022/03/26 10:41:06;;;;;;;3.28;2.20;;;;;;;;;;5075310;28;20047;-80
2022/03/26 10:43:38;;;;;;;3.53;2.53;;;;;;;;;;5075827;28;20047;-79
2022/03/26 10:46:03;;;;;;;;;;;;;;;;;;5074693;28;20050;-81
2022/03/26 10:49:09;;;;;;;5.75;1.88;;;;;;;;;;5068403;28;19908;-79
2022/03/26 10:51:36;;;;;;;2.95;2.47;;;;;;;;;;5059427;28;20032;-83
2022/03/26 10:54:08;;;;;;;2.47;2.13;;;;;;;;;;5072574;28;20047;-81
2022/03/26 10:56:34;;;;;;;1.38;1.23;;;;;;;;;;5071302;28;20103;-83
2022/03/26 10:59:12;;;;;;;3.22;1.50;;;;;;;;;;5093602;28;20099;-79
2022/03/26 11:01:37;;;;;;;2.67;1.23;;;;;;;;;;5085642;28;20083;-77
2022/03/26 11:04:03;;;;;;;2.95;1.25;;;;;;;;;;5086802;28;20485;-78
2022/03/26 11:06:29;;;;;;;3.28;1.30;;;;;;;;;;5082849;28;20342;-80
2022/03/26 11:09:02;;;;;;;0.93;0.82;;;;;;;;;;5080935;28;20020;-78
2022/03/26 11:11:28;;;;;;;1.60;1.40;;;;;;;;;;5076070;28;20368;-79
2022/03/26 11:13:56;;;;;;;2.08;1.52;;;;;;;;;;5077415;28;20063;-78
2022/03/26 11:16:40;;;;;;;2.80;1.80;;;;;;;;;;5069356;28;20460;-80
2022/03/26 11:19:11;;;;;;;1.83;1.55;;;;;;;;;;5082801;28;20024;-81
2022/03/26 11:22:17;;;;;;;1.27;0.85;;;;;;;;;;5086251;28;20035;-82
2022/03/26 11:25:10;;;;;;;1.55;1.42;;;;;;;;;;5075562;28;20025;-79
2022/03/26 11:27:54;;;;;;;2.28;1.50;;;;;;;;;;5076984;28;20095;-78
2022/03/26 11:30:44;;;;;;;1.50;1.38;;;;;;;;;;5072035;28;20322;-80
2022/03/26 11:33:39;;;;;;;3.08;1.90;;;;;;;;;;5067030;28;20102;-79
2022/03/26 11:36:17;;;;;;;2.80;1.30;;;;;;;;;;5080454;28;20036;-81
2022/03/26 11:38:53;;;;;;;5.10;3.88;;;;;;;;;;5071474;28;20104;-78
2022/03/26 11:41:29;;;;;;;2.00;1.73;;;;;;;;;;5093256;28;20036;-79
2022/03/26 11:43:56;;;;;;;3.90;2.33;;;;;;;;;;5071274;28;20020;-78
2022/03/26 11:52:24;;;;;;;1.92;1.50;;;;;;;;;;5065889;28;20043;-76
2022/03/26 11:55:15;;;;;;;4.60;1.42;;;;;;;;;;5101050;28;20031;-76
2022/03/26 11:57:45;;;;;;;3.33;2.22;;;;;;;;;;5072445;28;20040;-77
2022/03/26 12:00:20;;;;;;;2.50;1.57;;;;;;;;;;5067445;28;20449;-77
2022/03/26 12:02:52;;;;;;;2.65;0.95;;;;;;;;;;5080517;28;20028;-76
2022/03/26 12:08:14;;;;;;;1.65;1.05;;;;;;;;;;5079237;28;20496;-78
2022/03/26 12:10:45;;;;;;;1.33;1.23;;;;;;;;;;5061753;28;20434;-78
2022/03/26 12:13:21;;;;;;;0.98;0.80;;;;;;;;;;5068641;28;20036;-76
2022/03/26 12:16:02;;;;;;;1.88;1.20;;;;;;;;;;5072154;28;20027;-77
2022/03/26 12:18:33;;;;;;;2.20;2.00;;;;;;;;;;5059774;28;20069;-78
2022/03/26 12:21:22;;;;;;;1.00;0.90;;;;;;;;;;5095509;28;20065;-78
2022/03/26 12:23:48;;;;;;;2.15;1.55;;;;;;;;;;5085361;28;20031;-77
2022/03/26 12:26:13;;;;;;;2.95;1.20;;;;;;;;;;5093939;28;20024;-75
2022/03/26 12:28:41;;;;;;;1.58;1.45;;;;;;;;;;5077914;28;20027;-79
2022/03/26 12:31:17;;;;;;;1.95;1.52;;;;;;;;;;5069606;28;20025;-78
2022/03/26 12:33:48;;;;;;;0.77;0.70;;;;;;;;;;5086788;28;20028;-83
2022/03/26 12:36:18;;;;;;;8.50;1.77;;;;;;;;;;5071495;28;20114;-79
2022/03/26 12:38:52;;;;;;;4.97;1.48;;;;;;;;;;5071950;28;20521;-79
2022/03/26 12:41:18;;;;;;;3.83;2.03;;;;;;;;;;5075957;28;20039;-77
2022/03/26 12:43:53;;;;;;;1.52;1.27;;;;;;;;;;5072535;28;20036;-80
2022/03/26 12:46:18;;;;;;;2.30;1.27;;;;;;;;;;5080408;28;20481;-77
2022/03/26 12:48:44;;;;;;;1.25;1.15;;;;;;;;;;5109379;28;20047;-77
2022/03/26 12:51:09;;;;;;;6.40;1.80;;;;;;;;;;5089733;28;20048;-77
2022/03/26 12:53:39;;;;;;;11.27;1.90;;;;;;;;;;5098260;28;20054;-77
2022/03/26 12:56:08;;;;;;;2.15;1.27;;;;;;;;;;5092114;28;20013;-77
2022/03/26 13:01:21;;;;;;;1.95;1.55;;;;;;;;;;5095096;28;20416;-76
2022/03/26 13:03:46;;;;;;;2.38;1.45;;;;;;;;;;5111599;28;20035;-75
2022/03/26 13:06:13;;;;;;;1.27;1.17;;;;;;;;;;5093270;28;20020;-76
2022/03/26 13:08:48;;;;;;;4.35;1.45;;;;;;;;;;5070075;28;20035;-77
2022/03/26 13:11:14;;;;;;;1.25;0.80;;;;;;;;;;5057730;28;20031;-77
2022/03/26 13:13:49;;;;;;;1.83;1.45;;;;;;;;;;5078099;28;20024;-77
2022/03/26 13:16:19;;;;;;;1.20;1.10;;;;;;;;;;5071463;28;20024;-77
2022/03/26 13:18:49;;;;;;;3.60;0.95;;;;;;;;;;5066211;28;20031;-77
2022/03/26 13:21:23;;;;;;;1.52;1.10;;;;;;;;;;5082209;28;20364;-77
2022/03/26 13:23:54;;;;;;;2.28;1.48;;;;;;;;;;5087028;28;20548;-77
2022/03/26 13:26:19;;;;;;;2.45;1.20;;;;;;;;;;5090648;28;20028;-77
2022/03/26 13:28:47;;;;;;;0.93;0.80;;;;;;;;;;5072924;28;20341;-77
2022/03/26 13:31:23;;;;;;;2.55;1.63;;;;;;;;;;5069126;28;20028;-77
2022/03/26 13:33:50;;;;;;;2.28;2.08;;;;;;;;;;5086186;28;20020;-77
2022/03/26 13:36:26;;;;;;;3.42;2.20;;;;;;;;;;5075833;28;20039;-77
2022/03/26 13:38:52;;;;;;;3.65;2.15;;;;;;;;;;5089614;28;20028;-76
2022/03/26 13:41:19;;;;;;;2.35;1.88;;;;;;;;;;5088347;28;20352;-77
2022/03/26 13:43:46;;;;;;;2.22;2.00;;;;;;;;;;5071813;28;20025;-77
2022/03/26 13:46:12;;;;;;;2.03;1.67;;;;;;;;;;5088443;28;20487;-78
2022/03/26 13:48:54;;;;;;;1.88;1.17;;;;;;;;;;5083607;28;20032;-78
2022/03/26 13:51:34;;;;;;;1.90;1.30;;;;;;;;;;5086230;28;20501;-78
2022/03/26 13:54:04;;;;;;;4.05;2.33;;;;;;;;;;5078186;28;20038;-78
2022/03/26 13:56:31;;;;;;;2.72;1.55;;;;;;;;;;5095399;28;20024;-78
2022/03/26 13:59:04;;;;;;;3.10;2.33;;;;;;;;;;5084963;28;20032;-77
2022/03/26 14:01:29;;;;;;;;;;;;;;;;;;5088430;28;20405;-78
2022/03/26 14:03:57;;;;;;;1.45;0.82;;;;;;;;;;5056291;28;19959;-76
2022/03/26 14:06:25;;;;;;;1.55;1.02;;;;;;;;;;5081859;28;20025;-76
2022/03/26 14:08:53;;;;;;;1.13;0.73;;;;;;;;;;5080297;28;20055;-76
2022/03/26 14:11:18;;;;;;;3.17;1.80;;;;;;;;;;5089444;28;20072;-75
2022/03/26 14:13:47;;;;;;;0.75;0.75;;;;;;;;;;5055072;28;20056;-76
2022/03/26 14:16:12;;;;;;;1.48;1.08;;;;;;;;;;5096057;28;20033;-76
2022/03/26 14:18:40;;;;;;;0.90;0.90;;;;;;;;;;5087334;28;20034;-76
2022/03/26 14:21:06;;;;;;;1.95;1.38;;;;;;;;;;5062688;28;20027;-76
2022/03/26 14:23:34;;;;;;;0.70;0.70;;;;;;;;;;5077035;28;20026;-77
2022/03/26 14:25:59;;;;;;;3.97;2.38;;;;;;;;;;5064446;28;20028;-77
2022/03/26 14:28:24;;;;;;;1.98;1.77;;;;;;;;;;5090049;28;20038;-77
2022/03/26 14:30:50;;;;;;;0.80;0.77;;;;;;;;;;5069681;28;20119;-77
2022/03/26 14:33:20;;;;;;;0.90;0.90;;;;;;;;;;5060819;28;20064;-75
2022/03/26 14:35:49;;;;;;;1.67;1.10;;;;;;;;;;5087905;28;20028;-76
2022/03/26 14:38:16;;;;;;;2.13;1.73;;;;;;;;;;5064303;28;20032;-76
2022/03/26 14:40:41;;;;;;;2.08;1.52;;;;;;;;;;5079075;28;20083;-77
2022/03/26 14:43:09;;;;;;;4.00;1.48;;;;;;;;;;5082432;28;20056;-76
2022/03/26 14:45:35;;;;;;;3.50;1.35;;;;;;;;;;5091961;28;20091;-76
2022/03/26 14:48:01;;;;;;;2.63;2.17;;;;;;;;;;5061614;28;20029;-75
2022/03/26 14:50:27;;;;;;;2.83;1.50;;;;;;;;;;5093525;28;20016;-77
2022/03/26 14:52:56;;;;;;;2.50;1.70;;;;;;;;;;5061475;28;20043;-77
2022/03/26 14:55:22;;;;;;;1.50;1.40;;;;;;;;;;5067395;28;20024;-77
2022/03/26 14:57:54;;;;;;;6.00;1.83;;;;;;;;;;5080796;28;20024;-76
2022/03/26 15:00:20;;;;;;;3.20;2.28;;;;;;;;;;5072169;28;20024;-77
2022/03/26 15:02:45;;;;;;;3.05;1.52;;;;;;;;;;5078758;28;20043;-76
2022/03/26 15:05:10;;;;;;;1.10;1.00;;;;;;;;;;5080543;28;20039;-77